Time;durP1;ratioP1;P1;durP2;ratioP2;P2;SDS_P1;SDS_P2;PMS_P1;PMS_P2;Temp;Humidity;BMP_temperature;BMP_pressure;BME280_temperature;BME280_humidity;BME280_pressure;Samples;Min_cycle;Max_cycle;Signal;HPM_P1;HPM_P2
2021/03/28 00:00:04;;;;;;;6.78;2.17;;;;;;;3.02;77.36;101873.13;5034132;28;20043;-68
2021/03/28 00:02:51;;;;;;;9.77;2.25;;;;;;;3.01;77.66;101860.91;4975433;28;20037;-68
2021/03/28 00:05:22;;;;;;;5.80;2.30;;;;;;;3.05;77.18;101860.22;5033715;28;20041;-68
2021/03/28 00:07:47;;;;;;;5.60;2.33;;;;;;;3.07;77.11;101863.78;5034037;28;20061;-68
2021/03/28 00:10:33;;;;;;;4.25;2.15;;;;;;;3.11;77.22;101864.81;5033876;28;20052;-68
2021/03/28 00:13:08;;;;;;;5.97;2.30;;;;;;;3.15;77.57;101865.84;5023170;28;20488;-68
2021/03/28 00:15:39;;;;;;;7.97;2.60;;;;;;;3.19;77.05;101862.56;5032274;28;20594;-69
2021/03/28 00:18:16;;;;;;;6.60;2.33;;;;;;;3.23;77.14;101874.91;5033869;28;20159;-69
2021/03/28 00:20:43;;;;;;;10.25;2.40;;;;;;;3.27;76.76;101872.53;5018362;28;20112;-68
2021/03/28 00:23:19;;;;;;;6.18;1.98;;;;;;;3.31;76.75;101867.44;5033810;28;20069;-69
2021/03/28 00:26:16;;;;;;;5.85;2.67;;;;;;;3.36;76.67;101873.75;5018572;28;20438;-68
2021/03/28 00:28:52;;;;;;;4.78;1.95;;;;;;;3.40;76.50;101867.84;5018079;28;20056;-68
2021/03/28 00:31:51;;;;;;;7.43;3.05;;;;;;;3.37;76.33;101868.59;5033507;28;20492;-68
2021/03/28 00:34:27;;;;;;;4.90;2.15;;;;;;;3.27;76.39;101864.69;5033514;28;20108;-68
2021/03/28 00:36:56;;;;;;;5.47;2.25;;;;;;;3.19;76.18;101862.56;5033526;28;20077;-68
2021/03/28 00:39:40;;;;;;;9.13;3.35;;;;;;;3.06;77.06;101867.19;5026420;28;20112;-68
2021/03/28 00:42:13;;;;;;;5.35;2.65;;;;;;;2.97;76.86;101869.41;5033393;28;20498;-68
2021/03/28 00:45:14;;;;;;;9.68;2.85;;;;;;;2.83;77.56;101867.88;5033238;28;20044;-68
2021/03/28 00:47:43;;;;;;;6.55;2.95;;;;;;;2.75;77.63;101871.81;5016821;28;20045;-68
2021/03/28 00:50:20;;;;;;;4.43;2.13;;;;;;;2.65;78.00;101870.50;5040318;28;20511;-68
2021/03/28 00:52:54;;;;;;;7.72;2.53;;;;;;;2.57;77.56;101875.38;5022497;28;20403;-69
2021/03/28 00:55:26;;;;;;;9.88;2.85;;;;;;;2.51;77.97;101877.66;5023213;28;20091;-69
2021/03/28 00:58:15;;;;;;;6.30;2.88;;;;;;;2.42;77.90;101880.72;5033361;28;20036;-68
2021/03/28 01:00:49;;;;;;;8.65;2.97;;;;;;;2.39;78.41;101879.69;5016284;28;20030;-68
2021/03/28 01:03:55;;;;;;;6.00;2.75;;;;;;;2.33;78.23;101879.38;5032927;28;20033;-69
2021/03/28 01:06:33;;;;;;;8.57;3.40;;;;;;;2.29;78.66;101885.28;5032612;28;20122;-68
2021/03/28 01:09:17;;;;;;;8.27;2.92;;;;;;;2.22;78.94;101880.56;5033128;28;20033;-69
2021/03/28 01:11:53;;;;;;;6.25;3.05;;;;;;;2.21;78.68;101881.41;5017536;28;20056;-68
2021/03/28 01:14:39;;;;;;;7.00;2.95;;;;;;;2.13;78.52;101879.28;5032681;28;20099;-68
2021/03/28 01:17:19;;;;;;;5.18;2.55;;;;;;;2.09;78.72;101882.56;5032526;28;20040;-68
2021/03/28 01:20:27;;;;;;;6.13;2.75;;;;;;;2.02;79.56;101877.88;5017689;28;20396;-68
2021/03/28 01:23:04;;;;;;;7.03;2.67;;;;;;;1.98;79.06;101881.13;5014790;28;20123;-68
2021/03/28 01:25:45;;;;;;;6.13;3.28;;;;;;;1.91;79.41;101884.22;5032273;28;20045;-69
2021/03/28 01:28:19;;;;;;;8.55;2.80;;;;;;;1.79;79.29;101883.63;5032517;28;20038;-68
2021/03/28 01:31:02;;;;;;;8.07;3.17;;;;;;;1.70;79.85;101890.16;5016748;28;20087;-68
2021/03/28 01:33:45;;;;;;;8.50;2.85;;;;;;;1.63;79.22;101885.44;5032182;28;20034;-69
2021/03/28 01:36:30;;;;;;;4.95;2.50;;;;;;;1.57;79.87;101879.00;5032181;28;20046;-68
2021/03/28 01:39:06;;;;;;;6.53;3.08;;;;;;;1.54;80.24;101884.94;5016193;28;20038;-69
2021/03/28 01:41:36;;;;;;;8.63;3.00;;;;;;;1.52;80.72;101878.78;5031316;28;20048;-68
2021/03/28 01:44:16;;;;;;;5.03;2.47;;;;;;;1.48;81.05;101889.84;5032060;28;20082;-68
2021/03/28 01:47:09;;;;;;;6.65;2.80;;;;;;;1.47;80.63;101890.66;5016459;28;20065;-68
2021/03/28 01:49:43;;;;;;;7.57;3.28;;;;;;;1.40;80.30;101889.44;5031576;28;20099;-69
2021/03/28 01:52:24;;;;;;;8.47;2.97;;;;;;;1.43;81.49;101884.41;5030790;28;20499;-68
2021/03/28 01:55:03;;;;;;;9.20;3.65;;;;;;;1.46;80.71;101881.94;5018523;28;20400;-68
2021/03/28 01:57:43;;;;;;;7.30;3.53;;;;;;;1.44;80.92;101880.06;5031892;28;20411;-68
2021/03/28 02:00:36;;;;;;;6.50;3.30;;;;;;;1.38;81.32;101879.75;5032115;28;20034;-68
2021/03/28 02:03:07;;;;;;;7.07;3.08;;;;;;;1.35;80.89;101884.81;5021884;28;20060;-68
2021/03/28 02:05:33;;;;;;;6.95;2.78;;;;;;;1.33;80.87;101883.81;5031512;28;20086;-68
2021/03/28 02:08:26;;;;;;;6.60;3.00;;;;;;;1.29;81.25;101885.38;5032040;28;20132;-68
2021/03/28 02:11:14;;;;;;;10.43;3.17;;;;;;;1.26;80.72;101875.72;5014599;28;20040;-68
2021/03/28 02:13:42;;;;;;;6.67;2.90;;;;;;;1.27;81.19;101881.81;5015447;28;20480;-68
2021/03/28 02:16:25;;;;;;;6.30;3.30;;;;;;;1.29;81.64;101875.88;5031418;28;20037;-69
2021/03/28 02:18:53;;;;;;;;;;;;;;;1.28;82.22;101874.09;5019017;28;20033;-68
2021/03/28 02:21:55;;;;;;;6.20;3.30;;;;;;;1.25;81.42;101873.91;5031620;28;20441;-68
2021/03/28 02:24:44;;;;;;;8.77;3.20;;;;;;;1.21;81.25;101871.97;5021952;28;20040;-68
2021/03/28 02:27:35;;;;;;;6.40;3.17;;;;;;;1.22;81.46;101873.75;5031613;28;20408;-68
2021/03/28 02:30:31;;;;;;;7.77;3.10;;;;;;;1.20;81.82;101875.38;5021135;28;20399;-68
2021/03/28 02:33:30;;;;;;;6.67;3.27;;;;;;;1.15;81.70;101875.94;5019956;28;20112;-68
2021/03/28 02:36:13;;;;;;;7.67;3.57;;;;;;;1.08;80.67;101874.72;5019293;28;20033;-68
2021/03/28 02:39:07;;;;;;;6.63;3.55;;;;;;;0.99;80.85;101879.41;5029250;28;20590;-68
2021/03/28 02:42:03;;;;;;;9.33;5.07;;;;;;;0.88;82.11;101879.72;5025847;28;20046;-68
2021/03/28 02:44:52;;;;;;;7.67;4.17;;;;;;;0.84;81.67;101882.09;5028076;28;20034;-68
2021/03/28 02:47:36;;;;;;;7.93;4.30;;;;;;;0.81;81.35;101885.44;5037990;28;20488;-68
2021/03/28 02:50:28;;;;;;;8.93;4.43;;;;;;;0.78;81.32;101887.81;5031197;28;20044;-68
2021/03/28 02:53:17;;;;;;;10.53;4.00;;;;;;;0.77;81.52;101887.75;5018756;28;20059;-68
2021/03/28 02:56:03;;;;;;;6.70;3.50;;;;;;;0.77;82.03;101890.38;5015612;28;20060;-68
2021/03/28 02:58:46;;;;;;;8.83;4.73;;;;;;;0.76;82.33;101893.75;5001526;28;20038;-69
2021/03/28 03:01:38;;;;;;;7.32;3.70;;;;;;;0.78;81.95;101880.03;5013685;28;20032;-68
2021/03/28 03:04:24;;;;;;;7.15;3.60;;;;;;;0.77;82.52;101885.16;5000259;28;20046;-68
2021/03/28 03:07:10;;;;;;;6.50;4.37;;;;;;;0.74;82.05;101898.88;5017810;28;20038;-68
2021/03/28 03:10:07;;;;;;;8.53;3.57;;;;;;;0.73;81.91;101897.06;5025945;28;20069;-69
2021/03/28 03:13:05;;;;;;;5.43;3.60;;;;;;;0.69;82.27;101905.53;5028147;28;20045;-68
2021/03/28 03:15:44;;;;;;;8.33;4.30;;;;;;;0.69;82.52;101905.53;5030719;28;20037;-68
2021/03/28 03:18:44;;;;;;;8.43;4.03;;;;;;;0.70;82.57;101901.22;5031020;28;20037;-68
2021/03/28 03:21:36;;;;;;;9.50;3.90;;;;;;;0.71;82.74;101905.59;5016935;28;20041;-68
2021/03/28 03:24:20;;;;;;;7.05;3.95;;;;;;;0.70;82.11;101906.41;5020724;28;20099;-68
2021/03/28 03:27:07;;;;;;;8.67;3.63;;;;;;;0.69;81.85;101905.53;5016100;28;20038;-68
2021/03/28 03:29:41;;;;;;;6.97;4.20;;;;;;;0.63;81.71;101907.78;5037845;28;20041;-68
2021/03/28 03:32:09;;;;;;;8.33;3.57;;;;;;;0.63;82.37;101910.41;5031057;28;20033;-68
2021/03/28 03:35:13;;;;;;;6.17;4.20;;;;;;;0.67;82.61;101920.13;5030682;28;20045;-68
2021/03/28 03:38:16;;;;;;;11.77;4.30;;;;;;;0.62;83.04;101922.47;5018327;28;20432;-68
2021/03/28 03:41:16;;;;;;;6.50;3.60;;;;;;;0.61;82.41;101927.59;5014943;28;20040;-68
2021/03/28 03:44:09;;;;;;;8.63;4.07;;;;;;;0.62;82.60;101934.56;5014823;28;20106;-68
2021/03/28 03:46:44;;;;;;;7.35;3.40;;;;;;;0.64;83.13;101932.97;5030517;28;20155;-68
2021/03/28 03:49:34;;;;;;;7.10;3.57;;;;;;;0.64;82.54;101930.34;5031026;28;20494;-68
2021/03/28 03:52:37;;;;;;;9.37;4.00;;;;;;;0.69;82.86;101931.50;5009560;28;20026;-67
2021/03/28 03:55:17;;;;;;;7.43;3.70;;;;;;;0.72;83.45;101931.69;5022048;28;20496;-69
2021/03/28 03:57:54;;;;;;;7.17;3.67;;;;;;;0.67;82.76;101940.03;5022958;28;20087;-68
2021/03/28 04:00:29;;;;;;;9.93;3.90;;;;;;;0.73;83.66;101940.38;5033598;28;20033;-68
2021/03/28 04:03:20;;;;;;;8.93;4.47;;;;;;;0.72;83.29;101934.28;5033735;28;20029;-68
2021/03/28 04:05:56;;;;;;;9.33;3.70;;;;;;;0.77;83.52;101948.44;5018648;28;20426;-68
2021/03/28 04:08:44;;;;;;;6.43;3.53;;;;;;;0.88;83.26;101944.72;5033404;28;20116;-68
2021/03/28 04:11:43;;;;;;;9.17;4.53;;;;;;;0.93;82.84;101942.38;5033469;28;20045;-68
2021/03/28 04:14:23;;;;;;;6.27;3.97;;;;;;;0.95;82.21;101945.06;5029113;28;20047;-68
2021/03/28 04:17:04;;;;;;;6.07;3.73;;;;;;;0.97;82.93;101946.03;5019436;28;20038;-68
2021/03/28 04:19:38;;;;;;;7.00;3.30;;;;;;;0.98;82.10;101945.25;5033450;28;20029;-68
2021/03/28 04:22:32;;;;;;;8.40;4.10;;;;;;;0.95;82.72;101940.75;5033324;28;20045;-68
2021/03/28 04:25:14;;;;;;;7.23;3.77;;;;;;;0.97;82.40;101944.34;5014571;28;20677;-68
2021/03/28 04:27:49;;;;;;;7.88;4.30;;;;;;;0.98;82.43;101942.63;5033457;28;20120;-68
2021/03/28 04:30:33;;;;;;;7.83;3.67;;;;;;;0.98;82.15;101940.03;5033470;28;20060;-68
2021/03/28 04:33:10;;;;;;;12.67;3.70;;;;;;;0.98;81.92;101940.94;5022456;28;20056;-68
2021/03/28 04:35:59;;;;;;;7.90;3.77;;;;;;;0.98;82.29;101940.94;5033171;28;20534;-68
2021/03/28 04:38:36;;;;;;;8.37;3.53;;;;;;;0.98;82.26;101947.84;5033538;28;20045;-68
2021/03/28 04:41:28;;;;;;;7.73;3.53;;;;;;;0.91;81.47;101948.28;5033506;28;20033;-68
2021/03/28 04:44:20;;;;;;;7.43;3.80;;;;;;;0.85;82.05;101949.75;5019825;28;20037;-68
2021/03/28 04:47:15;;;;;;;7.40;4.20;;;;;;;0.76;81.19;101954.44;5017424;28;20041;-68
2021/03/28 04:49:46;;;;;;;7.10;4.53;;;;;;;0.75;82.34;101950.03;5016132;28;20407;-68
2021/03/28 04:52:46;;;;;;;8.83;4.23;;;;;;;0.73;82.58;101954.25;5032146;28;20048;-68
2021/03/28 04:55:48;;;;;;;6.70;4.13;;;;;;;0.77;82.10;101961.41;5024304;28;20055;-69
2021/03/28 04:58:48;;;;;;;9.55;4.32;;;;;;;0.80;82.21;101956.38;5024877;28;20029;-68
2021/03/28 05:01:35;;;;;;;9.63;4.57;;;;;;;0.86;81.63;101946.34;5024695;28;20041;-68
2021/03/28 05:04:48;;;;;;;8.77;4.57;;;;;;;0.87;82.04;101952.44;5021336;28;20124;-68
2021/03/28 05:07:44;;;;;;;6.45;3.53;;;;;;;0.83;81.68;101951.34;5024238;28;20028;-68
2021/03/28 05:11:02;;;;;;;7.33;4.00;;;;;;;0.87;82.07;101955.03;5023544;28;20045;-68
2021/03/28 05:13:43;;;;;;;8.37;4.17;;;;;;;0.94;81.97;101954.56;4997032;28;20056;-68
2021/03/28 05:16:42;;;;;;;8.27;4.83;;;;;;;0.98;81.03;101956.53;5031585;28;20037;-68
2021/03/28 05:19:23;;;;;;;8.50;4.20;;;;;;;1.03;81.35;101962.00;5022995;28;20109;-68
2021/03/28 05:21:49;;;;;;;9.80;4.87;;;;;;;1.11;81.38;101952.91;5018009;28;20037;-68
2021/03/28 05:24:48;;;;;;;8.40;5.30;;;;;;;1.18;81.14;101954.13;5031673;28;20030;-68
2021/03/28 05:27:44;;;;;;;7.63;4.63;;;;;;;1.33;80.56;101964.47;5024328;28;20048;-68
2021/03/28 05:30:37;;;;;;;7.70;4.40;;;;;;;1.47;80.61;101966.13;5023051;28;20044;-68
2021/03/28 05:33:16;;;;;;;;;;;;;;;1.54;80.59;101950.00;5021896;28;20044;-68
2021/03/28 05:35:55;;;;;;;9.07;4.97;;;;;;;1.71;80.68;101954.41;5015363;28;19919;-68
2021/03/28 05:38:46;;;;;;;8.30;4.97;;;;;;;1.86;80.22;101966.41;5031468;28;20499;-68
2021/03/28 05:42:00;;;;;;;7.40;4.40;;;;;;;1.95;79.96;101959.09;5031458;28;20167;-68
2021/03/28 05:44:32;;;;;;;;;;;;;;;2.02;80.17;101952.47;4955374;28;539874;-68
2021/03/28 05:47:04;;;;;;;9.07;3.83;;;;;;;2.16;79.88;101960.19;5031928;28;19917;-68
2021/03/28 05:49:48;;;;;;;;;;;;;;;2.12;79.69;101952.13;5032469;28;20049;-68
2021/03/28 05:52:49;;;;;;;9.53;4.87;;;;;;;2.16;79.36;101957.59;5032094;28;19913;-68
2021/03/28 05:55:49;;;;;;;8.03;4.70;;;;;;;2.22;79.29;101950.91;5024920;28;20033;-68
2021/03/28 05:58:45;;;;;;;11.73;5.17;;;;;;;2.23;79.00;101956.19;5028947;28;20041;-69
2021/03/28 06:01:26;;;;;;;10.57;5.38;;;;;;;2.34;79.19;101961.94;5024096;28;20649;-68
2021/03/28 06:04:10;;;;;;;8.43;5.10;;;;;;;2.40;78.55;101954.41;5028038;28;20044;-69
2021/03/28 06:07:13;;;;;;;10.85;5.10;;;;;;;2.51;78.65;101954.94;5020383;28;20036;-68
2021/03/28 06:09:47;;;;;;;7.63;4.43;;;;;;;2.64;78.50;101949.50;5031678;28;20480;-68
2021/03/28 06:12:21;;;;;;;8.07;4.57;;;;;;;2.73;78.95;101957.81;5027067;28;20041;-71
2021/03/28 06:15:21;;;;;;;7.55;4.45;;;;;;;2.78;78.46;101960.63;5017029;28;20594;-69
2021/03/28 06:18:10;;;;;;;8.20;4.03;;;;;;;2.89;78.08;101963.75;5017112;28;20698;-69
2021/03/28 06:21:03;;;;;;;8.00;3.78;;;;;;;2.96;77.99;101964.13;5031648;28;20377;-69
2021/03/28 06:23:41;;;;;;;;;;;;;;;3.02;77.29;101973.94;5031832;28;20488;-69
2021/03/28 06:26:39;;;;;;;7.90;4.13;;;;;;;3.17;77.53;101968.53;5031302;28;20012;-68
2021/03/28 06:29:29;;;;;;;8.52;4.30;;;;;;;3.30;76.98;101965.69;5019205;28;20093;-69
2021/03/28 06:32:13;;;;;;;10.15;4.03;;;;;;;3.46;76.72;101962.97;5017083;28;20040;-68
2021/03/28 06:35:13;;;;;;;7.10;4.32;;;;;;;3.66;76.22;101976.03;5025374;28;20099;-69
2021/03/28 06:38:05;;;;;;;7.47;4.18;;;;;;;3.90;75.36;101977.13;5011162;28;20516;-69
2021/03/28 06:40:39;;;;;;;7.75;4.00;;;;;;;4.14;74.78;101979.94;5031469;28;20059;-69
2021/03/28 06:43:29;;;;;;;6.38;3.83;;;;;;;4.35;74.37;101984.28;5032055;28;20033;-68
2021/03/28 06:46:18;;;;;;;8.18;4.05;;;;;;;4.54;73.77;101983.34;5018540;28;20033;-69
2021/03/28 06:49:12;;;;;;;7.28;3.78;;;;;;;4.66;72.96;101983.81;5015682;28;20044;-69
2021/03/28 06:51:46;;;;;;;9.07;4.15;;;;;;;4.70;73.23;101988.34;5031250;28;20048;-69
2021/03/28 06:54:50;;;;;;;7.45;3.90;;;;;;;4.77;73.25;101973.81;5030985;28;20068;-69
2021/03/28 06:58:00;;;;;;;8.43;3.90;;;;;;;4.80;72.42;101972.22;5024097;28;20082;-69
2021/03/28 07:00:53;;;;;;;8.30;3.58;;;;;;;4.75;72.13;101972.84;5030984;28;20116;-69
2021/03/28 07:03:22;;;;;;;8.07;4.15;;;;;;;4.79;72.49;101969.53;5031044;28;20029;-69
2021/03/28 07:06:24;;;;;;;7.03;3.92;;;;;;;4.84;72.41;101971.47;5030678;28;20080;-69
2021/03/28 07:09:14;;;;;;;8.95;4.13;;;;;;;4.94;72.16;101980.59;5017433;28;20061;-68
2021/03/28 07:11:42;;;;;;;10.65;4.68;;;;;;;5.13;72.05;101969.13;5030099;28;20045;-69
2021/03/28 07:14:57;;;;;;;9.32;4.45;;;;;;;5.33;70.72;101967.28;5026127;28;20044;-69
2021/03/28 07:17:34;;;;;;;9.60;3.75;;;;;;;5.54;70.49;101969.81;5000676;28;20049;-69
2021/03/28 07:20:26;;;;;;;7.93;3.45;;;;;;;5.71;69.47;101963.50;5030301;28;20084;-69
2021/03/28 07:23:16;;;;;;;9.25;4.13;;;;;;;5.78;68.75;101958.47;5017225;28;20068;-69
2021/03/28 07:25:45;;;;;;;9.00;4.30;;;;;;;5.86;69.88;101967.50;5014384;28;20026;-69
2021/03/28 07:28:47;;;;;;;14.15;4.53;;;;;;;6.02;69.48;101968.97;5031029;28;20083;-69
2021/03/28 07:31:43;;;;;;;8.40;4.03;;;;;;;6.11;68.02;101967.56;5026256;28;20041;-69
2021/03/28 07:34:30;;;;;;;7.47;3.65;;;;;;;6.12;67.20;101956.22;5034212;28;20104;-69
2021/03/28 07:37:20;;;;;;;8.35;4.07;;;;;;;6.26;67.68;101959.34;5034353;28;20495;-69
2021/03/28 07:40:16;;;;;;;7.18;3.90;;;;;;;6.35;66.93;101959.66;5019908;28;20033;-69
2021/03/28 07:43:00;;;;;;;9.65;3.97;;;;;;;6.45;66.56;101957.34;5018301;28;20563;-69
2021/03/28 07:45:53;;;;;;;9.00;3.80;;;;;;;6.46;66.59;101962.63;5033655;28;20036;-69
2021/03/28 07:48:50;;;;;;;9.70;4.20;;;;;;;6.58;66.70;101963.06;5034418;28;20073;-69
2021/03/28 07:51:53;;;;;;;9.75;4.35;;;;;;;6.77;65.52;101961.91;5033979;28;20044;-69
2021/03/28 07:54:56;;;;;;;8.57;3.92;;;;;;;6.93;65.04;101959.78;5027664;28;20120;-69
2021/03/28 07:57:40;;;;;;;7.75;3.38;;;;;;;7.11;65.75;101964.72;5033983;28;20115;-69
2021/03/28 08:00:33;;;;;;;7.40;3.67;;;;;;;7.22;64.06;101963.31;5033888;28;20475;-69
2021/03/28 08:03:23;;;;;;;10.30;3.60;;;;;;;7.30;63.25;101976.66;5022778;28;20033;-69
2021/03/28 08:06:13;;;;;;;6.18;2.97;;;;;;;7.41;62.04;101968.28;5019778;28;20038;-68
2021/03/28 08:08:50;;;;;;;10.57;3.17;;;;;;;7.45;63.00;101972.75;5034163;28;20033;-69
2021/03/28 08:11:33;;;;;;;8.35;3.90;;;;;;;7.45;62.54;101967.50;5023615;28;20033;-71
2021/03/28 08:14:30;;;;;;;7.78;3.83;;;;;;;7.55;63.22;101979.19;5029079;28;20443;-71
2021/03/28 08:17:23;;;;;;;12.60;4.40;;;;;;;7.61;61.88;101978.47;5021656;28;20048;-70
2021/03/28 08:20:05;;;;;;;6.88;3.78;;;;;;;7.65;62.78;101978.63;5019494;28;20037;-71
2021/03/28 08:23:00;;;;;;;9.50;4.20;;;;;;;7.65;62.43;101975.06;5027535;28;20546;-71
2021/03/28 08:25:58;;;;;;;11.57;4.25;;;;;;;7.85;62.61;101989.69;5018430;28;20084;-71
2021/03/28 08:29:17;;;;;;;8.00;3.58;;;;;;;7.79;62.26;101984.25;5030492;28;20407;-71
2021/03/28 08:32:15;;;;;;;6.80;4.22;;;;;;;7.84;62.79;101982.66;4959322;28;20170;-71
2021/03/28 08:35:05;;;;;;;7.78;3.72;;;;;;;7.86;62.65;101977.44;5017415;28;20484;-71
2021/03/28 08:37:55;;;;;;;7.72;4.00;;;;;;;7.92;63.12;101985.50;5030191;28;20052;-71
2021/03/28 08:40:45;;;;;;;6.35;3.80;;;;;;;8.16;63.10;101977.38;5027342;28;20029;-71
2021/03/28 08:43:35;;;;;;;8.55;3.97;;;;;;;8.35;62.77;101987.53;5023491;28;20045;-71
2021/03/28 08:46:17;;;;;;;8.25;4.13;;;;;;;8.38;60.91;101983.22;5021008;28;20038;-71
2021/03/28 08:48:54;;;;;;;9.90;4.03;;;;;;;8.55;61.62;101981.94;5016482;28;20045;-71
2021/03/28 08:51:27;;;;;;;10.07;4.43;;;;;;;8.57;61.11;101974.97;5031743;28;20034;-71
2021/03/28 08:54:17;;;;;;;10.82;3.90;;;;;;;8.68;60.92;101976.13;5031939;28;20037;-71
2021/03/28 08:57:01;;;;;;;9.15;4.65;;;;;;;8.80;58.97;101977.28;5018840;28;20037;-71
2021/03/28 08:59:52;;;;;;;13.82;4.38;;;;;;;8.82;59.06;101976.47;5031246;28;20032;-71
2021/03/28 09:02:19;;;;;;;11.45;4.22;;;;;;;8.89;58.45;101980.13;5023307;28;20037;-71
2021/03/28 09:04:46;;;;;;;10.88;4.32;;;;;;;9.02;58.98;101981.31;5032964;28;20403;-71
2021/03/28 09:07:33;;;;;;;9.50;4.70;;;;;;;9.05;58.86;101979.63;5032613;28;20033;-71
2021/03/28 09:10:06;;;;;;;9.63;4.20;;;;;;;9.03;58.67;101978.72;5021374;28;20037;-71
2021/03/28 09:12:52;;;;;;;8.10;3.65;;;;;;;9.17;58.35;101976.41;5031282;28;20138;-71
2021/03/28 09:15:48;;;;;;;10.93;4.05;;;;;;;9.16;57.28;101977.25;5024791;28;20077;-71
2021/03/28 09:18:33;;;;;;;9.43;4.18;;;;;;;9.23;56.97;101975.66;5022286;28;20029;-71
2021/03/28 09:21:25;;;;;;;9.20;4.43;;;;;;;9.16;57.11;101985.16;5029189;28;20033;-71
2021/03/28 09:24:31;;;;;;;11.30;4.18;;;;;;;9.20;56.59;101977.38;5018611;28;20566;-71
2021/03/28 09:27:20;;;;;;;12.15;4.18;;;;;;;9.32;57.13;101970.56;4973251;28;20050;-71
2021/03/28 09:30:25;;;;;;;8.75;4.50;;;;;;;9.47;56.26;101976.19;4967711;28;20513;-71
2021/03/28 09:33:24;;;;;;;10.27;3.70;;;;;;;9.60;55.56;101972.94;5026488;28;20065;-71
2021/03/28 09:36:13;;;;;;;13.02;4.63;;;;;;;9.73;56.68;101965.31;5018231;28;20045;-71
2021/03/28 09:38:41;;;;;;;12.32;4.90;;;;;;;9.91;55.65;101956.88;5031303;28;20558;-71
2021/03/28 09:41:21;;;;;;;9.13;4.15;;;;;;;9.97;54.61;101956.97;5031716;28;20029;-71
2021/03/28 09:44:01;;;;;;;12.82;5.78;;;;;;;10.14;55.72;101954.63;5017057;28;20041;-71
2021/03/28 09:46:59;;;;;;;10.70;4.63;;;;;;;10.23;55.47;101960.09;5031571;28;20036;-71
2021/03/28 09:49:58;;;;;;;10.25;5.32;;;;;;;10.44;54.26;101946.44;5031499;28;20454;-71
2021/03/28 09:52:37;;;;;;;8.48;4.38;;;;;;;10.30;54.70;101949.72;5031356;28;20025;-71
2021/03/28 09:55:22;;;;;;;12.65;5.53;;;;;;;10.24;55.52;101956.59;5031329;28;20561;-72
2021/03/28 09:58:17;;;;;;;11.25;4.72;;;;;;;10.23;54.29;101949.56;5015261;28;20033;-71
2021/03/28 10:01:08;;;;;;;8.70;4.50;;;;;;;10.22;55.78;101953.06;5011973;28;20101;-71
2021/03/28 10:03:47;;;;;;;14.00;4.95;;;;;;;10.29;53.41;101954.97;5014757;28;20060;-71
2021/03/28 10:06:17;;;;;;;10.70;4.32;;;;;;;10.12;54.25;101945.84;5018530;28;20034;-71
2021/03/28 10:08:47;;;;;;;11.05;4.78;;;;;;;10.21;54.75;101953.91;5016251;28;20041;-71
2021/03/28 10:11:39;;;;;;;12.73;4.00;;;;;;;10.17;54.90;101952.09;5021786;28;20041;-71
2021/03/28 10:14:15;;;;;;;8.88;4.53;;;;;;;10.33;54.43;101956.81;5018823;28;20032;-72
2021/03/28 10:17:08;;;;;;;9.73;3.92;;;;;;;10.48;53.76;101964.13;5012455;28;20481;-71
2021/03/28 10:19:46;;;;;;;10.80;3.80;;;;;;;10.63;53.23;101960.81;5024895;28;20069;-71
2021/03/28 10:22:29;;;;;;;9.48;3.90;;;;;;;10.81;50.84;101957.59;5027548;28;20488;-71
2021/03/28 10:25:20;;;;;;;11.73;4.00;;;;;;;10.94;50.89;101952.50;5017343;28;20073;-72
2021/03/28 10:28:07;;;;;;;11.63;4.70;;;;;;;11.13;50.79;101956.34;5024017;28;20055;-71
2021/03/28 10:30:43;;;;;;;11.65;3.67;;;;;;;11.37;50.52;101954.88;5018594;28;20037;-71
2021/03/28 10:33:12;;;;;;;13.27;4.03;;;;;;;11.50;49.54;101943.63;5027040;28;20463;-71
2021/03/28 10:36:00;;;;;;;11.15;4.15;;;;;;;11.36;49.38;101935.47;5023403;28;20042;-71
2021/03/28 10:39:07;;;;;;;14.20;4.22;;;;;;;11.40;48.83;101942.59;5016592;28;20033;-71
2021/03/28 10:41:44;;;;;;;10.30;3.90;;;;;;;11.46;48.28;101938.25;5011894;28;20109;-72
2021/03/28 10:44:22;;;;;;;10.05;3.42;;;;;;;11.50;49.02;101942.69;5010765;28;20030;-72
2021/03/28 10:47:17;;;;;;;12.98;4.22;;;;;;;11.54;49.12;101929.53;5022053;28;20574;-72
2021/03/28 10:50:20;;;;;;;10.80;3.47;;;;;;;11.53;48.33;101929.53;5011428;28;20139;-71
2021/03/28 10:53:22;;;;;;;10.88;3.28;;;;;;;11.48;47.98;101926.84;5013784;28;20096;-72
2021/03/28 10:56:15;;;;;;;14.05;4.03;;;;;;;11.76;49.86;101930.69;5021205;28;20515;-72
2021/03/28 10:59:15;;;;;;;8.82;3.40;;;;;;;11.79;46.60;101937.78;5023847;28;20041;-71
2021/03/28 11:02:11;;;;;;;11.10;3.40;;;;;;;11.59;48.25;101938.41;5018321;28;20069;-71
2021/03/28 11:05:17;;;;;;;10.10;3.78;;;;;;;11.55;48.52;101941.91;5017698;28;20167;-72
2021/03/28 11:07:55;;;;;;;12.57;3.70;;;;;;;11.48;46.01;101936.53;5010943;28;20038;-72
2021/03/28 11:10:41;;;;;;;12.38;3.83;;;;;;;11.37;46.61;101926.69;5014784;28;20041;-72
2021/03/28 11:13:31;;;;;;;10.93;3.83;;;;;;;11.54;46.72;101931.31;5018131;28;20152;-71
2021/03/28 11:16:22;;;;;;;8.20;3.30;;;;;;;11.72;47.03;101910.38;5030479;28;20045;-71
2021/03/28 11:18:56;;;;;;;18.45;4.43;;;;;;;11.72;45.98;101917.41;5028437;28;20063;-72
2021/03/28 11:21:38;;;;;;;9.65;3.72;;;;;;;11.97;46.05;101905.34;5033124;28;20113;-71
2021/03/28 11:24:16;;;;;;;9.98;3.45;;;;;;;12.00;43.85;101911.59;5033583;28;20422;-71
2021/03/28 11:27:08;;;;;;;8.52;3.17;;;;;;;11.74;45.23;101898.06;5017294;28;20045;-71
2021/03/28 11:30:01;;;;;;;9.10;3.72;;;;;;;11.90;45.45;101908.84;5022032;28;20507;-71
2021/03/28 11:32:54;;;;;;;14.55;3.70;;;;;;;11.94;44.47;101900.03;5025997;28;20127;-71
2021/03/28 11:35:31;;;;;;;12.52;3.10;;;;;;;11.82;43.06;101904.31;5018049;28;20044;-71
2021/03/28 11:38:15;;;;;;;9.63;3.35;;;;;;;11.88;42.99;101892.94;5033973;28;20078;-71
2021/03/28 11:40:42;;;;;;;7.85;3.13;;;;;;;12.22;42.83;101903.84;5027722;28;20034;-71
2021/03/28 11:43:08;;;;;;;8.40;3.05;;;;;;;12.59;42.79;101889.13;5033886;28;20467;-72
2021/03/28 11:45:47;;;;;;;8.25;2.75;;;;;;;12.81;40.77;101891.91;5032291;28;20038;-71
2021/03/28 11:48:29;;;;;;;8.02;2.70;;;;;;;12.91;41.10;101894.63;5027522;28;20053;-71
2021/03/28 11:50:59;;;;;;;12.25;3.50;;;;;;;12.85;40.61;101899.03;5023354;28;20107;-71
2021/03/28 11:53:24;;;;;;;11.73;2.95;;;;;;;12.90;41.92;101897.28;5028521;28;20448;-72
2021/03/28 11:55:55;;;;;;;12.50;2.83;;;;;;;12.97;41.81;101891.16;5029239;28;20131;-71
2021/03/28 11:58:23;;;;;;;6.55;2.42;;;;;;;13.08;41.25;101894.75;5034212;28;20037;-72
2021/03/28 12:00:54;;;;;;;10.63;3.95;;;;;;;13.26;41.29;101895.72;5034245;28;20029;-69
2021/03/28 12:03:20;;;;;;;8.63;2.73;;;;;;;13.84;40.42;101884.44;5034287;28;20050;-69
2021/03/28 12:05:56;;;;;;;8.77;2.17;;;;;;;13.76;39.10;101903.00;5025229;28;20121;-69
2021/03/28 12:08:25;;;;;;;8.18;2.25;;;;;;;13.43;40.29;101902.00;5026772;28;20041;-69
2021/03/28 12:10:51;;;;;;;8.77;2.25;;;;;;;13.28;39.89;101907.22;5028264;28;20048;-70
2021/03/28 12:13:32;;;;;;;11.32;3.15;;;;;;;13.38;40.50;101899.31;5034129;28;20025;-69
2021/03/28 12:16:01;;;;;;;11.73;2.72;;;;;;;13.39;40.37;101905.53;5033670;28;20073;-69
2021/03/28 12:18:28;;;;;;;6.53;2.30;;;;;;;13.54;39.90;101894.97;5034007;28;20411;-68
2021/03/28 12:21:01;;;;;;;6.97;2.20;;;;;;;13.70;39.90;101889.69;5030701;28;20041;-68
2021/03/28 12:23:41;;;;;;;8.85;2.65;;;;;;;13.67;39.92;101892.34;5010607;28;20035;-68
2021/03/28 12:26:11;;;;;;;8.15;2.15;;;;;;;13.57;39.84;101892.34;5027388;28;20042;-68
2021/03/28 12:28:49;;;;;;;8.70;2.17;;;;;;;13.78;40.05;101883.56;5017242;28;20112;-69
2021/03/28 12:31:26;;;;;;;7.47;2.60;;;;;;;13.72;40.15;101887.94;5011665;28;20026;-69
2021/03/28 12:34:08;;;;;;;7.05;2.30;;;;;;;13.59;40.66;101877.28;5005382;28;20036;-68
2021/03/28 12:36:58;;;;;;;8.60;2.25;;;;;;;13.56;40.72;101871.97;5007305;28;20036;-69
2021/03/28 12:39:34;;;;;;;8.75;2.35;;;;;;;13.76;40.71;101871.16;5008981;28;20030;-69
2021/03/28 12:42:02;;;;;;;4.70;1.15;;;;;;;13.80;40.48;101871.16;5014731;28;20033;-69
2021/03/28 12:44:36;;;;;;;5.20;1.50;;;;;;;13.92;39.87;101870.31;5012681;28;20046;-69
2021/03/28 12:47:22;;;;;;;6.32;1.55;;;;;;;13.88;40.10;101879.13;5008364;28;20034;-69
2021/03/28 12:49:57;;;;;;;5.50;2.08;;;;;;;14.27;40.89;101866.78;5022566;28;20037;-71
2021/03/28 12:52:34;;;;;;;9.45;2.88;;;;;;;14.96;39.20;101868.47;5031622;28;20033;-68
2021/03/28 12:55:08;;;;;;;5.40;2.10;;;;;;;15.48;39.39;101852.31;5033392;28;20026;-69